sensor_id;sensor_type;location;lat;lon;timestamp;pressure;altitude;pressure_sealevel;temperature;humidity
11343;BME280;5726;42.160;24.746;2023-01-31T00:00:10;99084.91;;;4.91;74.64
11343;BME280;5726;42.160;24.746;2023-01-31T00:02:36;99078.28;;;4.93;74.04
11343;BME280;5726;42.160;24.746;2023-01-31T00:05:02;99088.88;;;4.88;73.87
11343;BME280;5726;42.160;24.746;2023-01-31T00:07:27;99097.16;;;4.92;73.50
11343;BME280;5726;42.160;24.746;2023-01-31T00:09:53;99087.34;;;5.12;72.94
11343;BME280;5726;42.160;24.746;2023-01-31T00:12:18;99091.31;;;5.00;73.00
11343;BME280;5726;42.160;24.746;2023-01-31T00:14:43;99099.28;;;5.00;73.41
11343;BME280;5726;42.160;24.746;2023-01-31T00:17:09;99093.97;;;5.05;73.73
11343;BME280;5726;42.160;24.746;2023-01-31T00:19:34;99094.53;;;5.07;73.46
11343;BME280;5726;42.160;24.746;2023-01-31T00:22:00;99091.31;;;5.00;74.00
11343;BME280;5726;42.160;24.746;2023-01-31T00:24:25;99090.00;;;5.12;73.69
11343;BME280;5726;42.160;24.746;2023-01-31T00:26:50;99088.66;;;5.05;73.80
11343;BME280;5726;42.160;24.746;2023-01-31T00:29:24;99088.66;;;4.95;73.75
11343;BME280;5726;42.160;24.746;2023-01-31T00:31:50;99092.91;;;5.01;73.69
11343;BME280;5726;42.160;24.746;2023-01-31T00:34:16;99091.31;;;5.10;72.54
11343;BME280;5726;42.160;24.746;2023-01-31T00:36:41;99086.84;;;5.25;72.49
11343;BME280;5726;42.160;24.746;2023-01-31T00:39:07;99093.47;;;5.18;72.40
11343;BME280;5726;42.160;24.746;2023-01-31T00:41:35;99084.41;;;5.14;73.94
11343;BME280;5726;42.160;24.746;2023-01-31T00:44:01;99079.88;;;5.09;74.49
11343;BME280;5726;42.160;24.746;2023-01-31T00:46:27;99073.00;;;5.18;74.86
11343;BME280;5726;42.160;24.746;2023-01-31T00:48:53;99074.28;;;4.96;75.78
11343;BME280;5726;42.160;24.746;2023-01-31T00:51:20;99073.25;;;4.97;75.39
11343;BME280;5726;42.160;24.746;2023-01-31T00:53:45;99083.34;;;5.05;75.55
11343;BME280;5726;42.160;24.746;2023-01-31T00:56:13;99071.66;;;5.01;75.93
11343;BME280;5726;42.160;24.746;2023-01-31T00:58:40;99080.19;;;5.22;74.70
11343;BME280;5726;42.160;24.746;2023-01-31T01:01:07;99075.41;;;5.15;74.42
11343;BME280;5726;42.160;24.746;2023-01-31T01:03:33;99083.88;;;5.21;74.27
11343;BME280;5726;42.160;24.746;2023-01-31T01:05:59;99085.78;;;5.31;73.47
11343;BME280;5726;42.160;24.746;2023-01-31T01:11:23;99075.41;;;5.44;73.57
11343;BME280;5726;42.160;24.746;2023-01-31T01:13:49;99074.84;;;5.42;73.70
11343;BME280;5726;42.160;24.746;2023-01-31T01:16:27;99077.53;;;5.47;73.88
11343;BME280;5726;42.160;24.746;2023-01-31T01:18:53;99077.53;;;5.47;73.90
11343;BME280;5726;42.160;24.746;2023-01-31T01:21:23;99067.44;;;5.44;74.31
11343;BME280;5726;42.160;24.746;2023-01-31T01:23:50;99077.00;;;5.45;73.77
11343;BME280;5726;42.160;24.746;2023-01-31T01:26:20;99082.56;;;5.44;74.29
11343;BME280;5726;42.160;24.746;2023-01-31T01:28:47;99076.47;;;5.53;74.11
11343;BME280;5726;42.160;24.746;2023-01-31T01:31:13;99085.22;;;5.44;74.42
11343;BME280;5726;42.160;24.746;2023-01-31T01:33:41;99078.88;;;5.55;74.59
11343;BME280;5726;42.160;24.746;2023-01-31T01:36:08;99079.66;;;5.45;75.50
11343;BME280;5726;42.160;24.746;2023-01-31T01:38:38;99083.13;;;5.46;76.17
11343;BME280;5726;42.160;24.746;2023-01-31T01:41:04;99078.59;;;5.51;76.87
11343;BME280;5726;42.160;24.746;2023-01-31T01:46:17;99078.31;;;5.53;77.67
11343;BME280;5726;42.160;24.746;2023-01-31T01:48:46;99070.63;;;5.41;78.51
11343;BME280;5726;42.160;24.746;2023-01-31T01:51:13;99062.91;;;5.40;79.15
11343;BME280;5726;42.160;24.746;2023-01-31T01:53:41;99063.19;;;5.38;79.47
11343;BME280;5726;42.160;24.746;2023-01-31T01:56:20;99057.34;;;5.41;79.89
11343;BME280;5726;42.160;24.746;2023-01-31T01:58:55;99052.81;;;5.42;80.16
11343;BME280;5726;42.160;24.746;2023-01-31T02:01:23;99057.06;;;5.53;79.23
11343;BME280;5726;42.160;24.746;2023-01-31T02:03:51;99052.53;;;5.68;78.83
11343;BME280;5726;42.160;24.746;2023-01-31T02:06:17;99041.63;;;5.50;79.29
11343;BME280;5726;42.160;24.746;2023-01-31T02:08:43;99031.81;;;5.50;79.38
11343;BME280;5726;42.160;24.746;2023-01-31T02:11:15;99035.25;;;5.61;79.51
11343;BME280;5726;42.160;24.746;2023-01-31T02:13:45;99032.84;;;5.69;79.15
11343;BME280;5726;42.160;24.746;2023-01-31T02:16:11;99025.41;;;5.61;79.33
11343;BME280;5726;42.160;24.746;2023-01-31T02:18:37;99019.81;;;5.82;78.87
11343;BME280;5726;42.160;24.746;2023-01-31T02:24:17;99024.88;;;5.54;79.52
11343;BME280;5726;42.160;24.746;2023-01-31T02:46:29;99025.38;;;5.91;77.82
11343;BME280;5726;42.160;24.746;2023-01-31T02:49:06;99021.66;;;5.92;77.15
11343;BME280;5726;42.160;24.746;2023-01-31T02:51:37;99021.94;;;5.90;76.88
11343;BME280;5726;42.160;24.746;2023-01-31T02:54:14;99023.75;;;6.10;75.97
11343;BME280;5726;42.160;24.746;2023-01-31T02:56:43;99013.63;;;6.12;75.15
11343;BME280;5726;42.160;24.746;2023-01-31T02:59:20;99027.41;;;6.23;74.17
11343;BME280;5726;42.160;24.746;2023-01-31T03:01:58;99027.44;;;6.18;74.80
11343;BME280;5726;42.160;24.746;2023-01-31T03:04:29;99029.50;;;6.36;74.00
11343;BME280;5726;42.160;24.746;2023-01-31T03:07:00;99018.31;;;6.34;73.48
11343;BME280;5726;42.160;24.746;2023-01-31T03:09:33;99017.22;;;6.45;72.78
11343;BME280;5726;42.160;24.746;2023-01-31T03:14:46;99016.66;;;6.43;72.93
11343;BME280;5726;42.160;24.746;2023-01-31T03:22:40;99023.88;;;6.43;72.66
11343;BME280;5726;42.160;24.746;2023-01-31T03:25:09;99024.13;;;6.41;71.05
11343;BME280;5726;42.160;24.746;2023-01-31T03:27:37;99023.03;;;6.47;70.61
11343;BME280;5726;42.160;24.746;2023-01-31T03:30:08;99014.28;;;6.47;70.70
11343;BME280;5726;42.160;24.746;2023-01-31T03:32:44;99019.88;;;6.40;70.54
11343;BME280;5726;42.160;24.746;2023-01-31T03:35:11;99025.19;;;6.40;71.31
11343;BME280;5726;42.160;24.746;2023-01-31T03:37:58;99037.47;;;6.31;71.46
11343;BME280;5726;42.160;24.746;2023-01-31T03:40:30;99019.41;;;6.33;71.44
11343;BME280;5726;42.160;24.746;2023-01-31T03:45:59;99030.09;;;6.14;72.06
11343;BME280;5726;42.160;24.746;2023-01-31T03:48:30;99030.91;;;6.09;72.44
11343;BME280;5726;42.160;24.746;2023-01-31T03:50:59;99028.84;;;5.96;72.08
11343;BME280;5726;42.160;24.746;2023-01-31T03:53:37;99032.81;;;5.99;71.91
11343;BME280;5726;42.160;24.746;2023-01-31T03:56:13;99032.03;;;5.88;71.43
11343;BME280;5726;42.160;24.746;2023-01-31T03:58:46;99037.03;;;6.05;71.17
11343;BME280;5726;42.160;24.746;2023-01-31T04:01:13;99040.50;;;6.10;70.26
11343;BME280;5726;42.160;24.746;2023-01-31T04:03:43;99046.38;;;5.97;70.01
11343;BME280;5726;42.160;24.746;2023-01-31T04:06:10;99032.31;;;5.92;69.93
11343;BME280;5726;42.160;24.746;2023-01-31T04:08:36;99041.88;;;5.88;69.68
11343;BME280;5726;42.160;24.746;2023-01-31T04:11:09;99040.03;;;5.64;69.75
11343;BME280;5726;42.160;24.746;2023-01-31T04:13:34;99052.00;;;5.71;69.19
11343;BME280;5726;42.160;24.746;2023-01-31T04:16:00;99045.06;;;5.60;68.93
11343;BME280;5726;42.160;24.746;2023-01-31T04:18:26;99051.47;;;5.64;69.06
11343;BME280;5726;42.160;24.746;2023-01-31T04:20:51;99065.81;;;5.73;69.38
11343;BME280;5726;42.160;24.746;2023-01-31T04:23:17;99070.59;;;5.66;69.68
11343;BME280;5726;42.160;24.746;2023-01-31T04:25:43;99050.97;;;5.47;70.50
11343;BME280;5726;42.160;24.746;2023-01-31T04:28:09;99060.00;;;5.41;71.29
11343;BME280;5726;42.160;24.746;2023-01-31T04:30:34;99074.88;;;5.52;70.81
11343;BME280;5726;42.160;24.746;2023-01-31T04:33:00;99060.00;;;5.56;70.79
11343;BME280;5726;42.160;24.746;2023-01-31T04:35:25;99060.25;;;5.40;71.26
11343;BME280;5726;42.160;24.746;2023-01-31T04:37:51;99066.38;;;5.35;71.78
11343;BME280;5726;42.160;24.746;2023-01-31T04:40:16;99076.47;;;5.38;71.91
11343;BME280;5726;42.160;24.746;2023-01-31T04:42:42;99084.44;;;5.28;72.77
11343;BME280;5726;42.160;24.746;2023-01-31T04:45:08;99081.78;;;5.33;72.64
11343;BME280;5726;42.160;24.746;2023-01-31T04:47:33;99092.94;;;5.35;73.04
11343;BME280;5726;42.160;24.746;2023-01-31T04:49:59;99096.13;;;5.32;73.06
11343;BME280;5726;42.160;24.746;2023-01-31T04:52:24;99101.16;;;5.29;74.29
11343;BME280;5726;42.160;24.746;2023-01-31T04:54:50;99105.41;;;5.35;74.28
11343;BME280;5726;42.160;24.746;2023-01-31T04:57:15;99114.16;;;5.11;74.89
11343;BME280;5726;42.160;24.746;2023-01-31T04:59:41;99116.28;;;5.14;74.78
11343;BME280;5726;42.160;24.746;2023-01-31T05:02:06;99086.03;;;5.29;74.43
11343;BME280;5726;42.160;24.746;2023-01-31T05:04:31;99092.41;;;5.23;74.28
11343;BME280;5726;42.160;24.746;2023-01-31T05:06:57;99096.66;;;5.20;74.65
11343;BME280;5726;42.160;24.746;2023-01-31T05:09:22;99084.69;;;5.07;75.01
11343;BME280;5726;42.160;24.746;2023-01-31T05:11:49;99101.94;;;5.10;74.48
11343;BME280;5726;42.160;24.746;2023-01-31T05:14:15;99097.69;;;5.14;74.48
11343;BME280;5726;42.160;24.746;2023-01-31T05:16:41;99098.22;;;5.06;74.53
11343;BME280;5726;42.160;24.746;2023-01-31T05:19:12;99105.94;;;5.02;75.36
11343;BME280;5726;42.160;24.746;2023-01-31T05:21:37;99097.69;;;5.04;75.32
11343;BME280;5726;42.160;24.746;2023-01-31T05:24:21;99111.50;;;5.06;75.60
11343;BME280;5726;42.160;24.746;2023-01-31T05:26:47;99109.59;;;4.91;76.31
11343;BME280;5726;42.160;24.746;2023-01-31T05:29:15;99111.16;;;4.82;77.26
11343;BME280;5726;42.160;24.746;2023-01-31T05:31:40;99111.81;;;5.19;80.73
11343;BME280;5726;42.160;24.746;2023-01-31T05:34:05;99100.38;;;5.33;79.06
11343;BME280;5726;42.160;24.746;2023-01-31T05:36:31;99109.97;;;5.29;80.29
11343;BME280;5726;42.160;24.746;2023-01-31T05:38:56;99118.97;;;5.28;77.09
11343;BME280;5726;42.160;24.746;2023-01-31T05:41:22;99125.38;;;5.37;76.83
11343;BME280;5726;42.160;24.746;2023-01-31T05:43:47;99117.63;;;5.26;76.17
11343;BME280;5726;42.160;24.746;2023-01-31T05:46:13;99127.97;;;5.08;75.78
11343;BME280;5726;42.160;24.746;2023-01-31T05:48:38;99123.19;;;5.00;76.02
11343;BME280;5726;42.160;24.746;2023-01-31T05:51:04;99113.34;;;5.00;75.97
11343;BME280;5726;42.160;24.746;2023-01-31T05:53:29;99120.47;;;4.85;76.54
11343;BME280;5726;42.160;24.746;2023-01-31T05:55:55;99112.53;;;4.90;76.13
11343;BME280;5726;42.160;24.746;2023-01-31T05:58:20;99117.03;;;4.89;76.80
11343;BME280;5726;42.160;24.746;2023-01-31T06:00:46;99118.91;;;4.89;77.00
11343;BME280;5726;42.160;24.746;2023-01-31T06:03:11;99121.00;;;4.87;77.51
11343;BME280;5726;42.160;24.746;2023-01-31T06:05:36;99136.69;;;4.83;78.13
11343;BME280;5726;42.160;24.746;2023-01-31T06:08:04;99144.38;;;4.90;77.81
11343;BME280;5726;42.160;24.746;2023-01-31T06:10:30;99149.44;;;4.81;78.29
11343;BME280;5726;42.160;24.746;2023-01-31T06:12:55;99158.75;;;4.89;77.98
11343;BME280;5726;42.160;24.746;2023-01-31T06:15:21;99150.28;;;4.97;77.88
11343;BME280;5726;42.160;24.746;2023-01-31T06:17:46;99147.59;;;4.92;77.73
11343;BME280;5726;42.160;24.746;2023-01-31T06:20:11;99173.13;;;4.98;77.94
11343;BME280;5726;42.160;24.746;2023-01-31T06:22:37;99159.06;;;5.02;77.99
11343;BME280;5726;42.160;24.746;2023-01-31T06:25:03;99165.41;;;4.96;78.08
11343;BME280;5726;42.160;24.746;2023-01-31T06:27:32;99171.19;;;4.83;78.09
11343;BME280;5726;42.160;24.746;2023-01-31T06:29:58;99172.56;;;4.91;77.91
11343;BME280;5726;42.160;24.746;2023-01-31T06:32:24;99167.28;;;5.06;77.07
11343;BME280;5726;42.160;24.746;2023-01-31T06:34:49;99175.25;;;5.01;77.11
11343;BME280;5726;42.160;24.746;2023-01-31T06:37:14;99174.75;;;5.14;76.92
11343;BME280;5726;42.160;24.746;2023-01-31T06:39:40;99176.34;;;5.20;76.73
11343;BME280;5726;42.160;24.746;2023-01-31T06:42:05;99173.75;;;5.29;76.36
11343;BME280;5726;42.160;24.746;2023-01-31T06:44:31;99184.66;;;5.43;75.58
11343;BME280;5726;42.160;24.746;2023-01-31T06:47:01;99189.72;;;5.44;75.44
11343;BME280;5726;42.160;24.746;2023-01-31T06:49:26;99184.94;;;5.41;75.72
11343;BME280;5726;42.160;24.746;2023-01-31T06:51:52;99182.25;;;5.41;76.01
11343;BME280;5726;42.160;24.746;2023-01-31T06:54:27;99181.75;;;5.69;75.39
11343;BME280;5726;42.160;24.746;2023-01-31T06:56:52;99182.28;;;5.66;75.38
11343;BME280;5726;42.160;24.746;2023-01-31T06:59:18;99195.88;;;5.69;76.15
11343;BME280;5726;42.160;24.746;2023-01-31T07:01:43;99197.44;;;5.66;76.46
11343;BME280;5726;42.160;24.746;2023-01-31T07:04:08;99204.91;;;5.68;76.32
11343;BME280;5726;42.160;24.746;2023-01-31T07:06:34;99205.72;;;5.84;76.53
11343;BME280;5726;42.160;24.746;2023-01-31T07:08:59;99202.03;;;5.95;75.94
11343;BME280;5726;42.160;24.746;2023-01-31T07:11:25;99205.22;;;6.02;76.26
11343;BME280;5726;42.160;24.746;2023-01-31T07:13:50;99208.94;;;5.86;76.87
11343;BME280;5726;42.160;24.746;2023-01-31T07:16:16;99216.13;;;6.10;76.89
11343;BME280;5726;42.160;24.746;2023-01-31T07:18:43;99215.34;;;6.10;76.88
11343;BME280;5726;42.160;24.746;2023-01-31T07:21:09;99221.19;;;6.07;76.97
11343;BME280;5726;42.160;24.746;2023-01-31T07:23:35;99228.63;;;6.05;77.17
11343;BME280;5726;42.160;24.746;2023-01-31T07:26:04;99220.38;;;6.26;78.34
11343;BME280;5726;42.160;24.746;2023-01-31T07:28:30;99238.75;;;5.98;78.28
11343;BME280;5726;42.160;24.746;2023-01-31T07:31:03;99232.34;;;6.28;78.17
11343;BME280;5726;42.160;24.746;2023-01-31T07:33:28;99232.38;;;6.18;77.95
11343;BME280;5726;42.160;24.746;2023-01-31T07:35:54;99226.50;;;6.36;77.72
11343;BME280;5726;42.160;24.746;2023-01-31T07:38:19;99239.28;;;6.29;77.08
11343;BME280;5726;42.160;24.746;2023-01-31T07:40:45;99243.25;;;6.37;77.06
11343;BME280;5726;42.160;24.746;2023-01-31T07:43:10;99246.19;;;6.35;77.42
11343;BME280;5726;42.160;24.746;2023-01-31T07:45:37;99243.50;;;6.40;76.66
11343;BME280;5726;42.160;24.746;2023-01-31T07:48:03;99246.19;;;6.25;77.47
11343;BME280;5726;42.160;24.746;2023-01-31T07:50:30;99254.97;;;6.31;76.79
11343;BME280;5726;42.160;24.746;2023-01-31T07:52:58;99260.56;;;6.44;76.24
11343;BME280;5726;42.160;24.746;2023-01-31T07:55:25;99252.56;;;6.34;76.64
11343;BME280;5726;42.160;24.746;2023-01-31T07:57:50;99245.94;;;6.32;76.06
11343;BME280;5726;42.160;24.746;2023-01-31T08:00:16;99244.06;;;6.37;75.40
11343;BME280;5726;42.160;24.746;2023-01-31T08:03:00;99250.97;;;6.43;75.10
11343;BME280;5726;42.160;24.746;2023-01-31T08:05:45;99245.66;;;6.48;75.19
11343;BME280;5726;42.160;24.746;2023-01-31T08:08:11;99253.13;;;6.36;75.20
11343;BME280;5726;42.160;24.746;2023-01-31T08:10:37;99259.75;;;6.39;75.59
11343;BME280;5726;42.160;24.746;2023-01-31T08:13:03;99251.50;;;6.50;75.69
11343;BME280;5726;42.160;24.746;2023-01-31T08:15:30;99258.94;;;6.63;75.52
11343;BME280;5726;42.160;24.746;2023-01-31T08:17:56;99261.88;;;6.62;75.32
11343;BME280;5726;42.160;24.746;2023-01-31T08:20:21;99257.91;;;6.54;75.55
11343;BME280;5726;42.160;24.746;2023-01-31T08:22:46;99260.28;;;6.61;75.77
11343;BME280;5726;42.160;24.746;2023-01-31T08:25:12;99264.50;;;6.71;75.44
11343;BME280;5726;42.160;24.746;2023-01-31T08:27:37;99262.13;;;6.75;75.50
11343;BME280;5726;42.160;24.746;2023-01-31T08:30:03;99263.19;;;6.74;75.87
11343;BME280;5726;42.160;24.746;2023-01-31T08:32:29;99270.09;;;6.80;75.56
11343;BME280;5726;42.160;24.746;2023-01-31T08:34:54;99274.91;;;6.73;76.07
11343;BME280;5726;42.160;24.746;2023-01-31T08:37:20;99275.66;;;6.83;75.66
11343;BME280;5726;42.160;24.746;2023-01-31T08:39:45;99264.78;;;6.70;76.62
11343;BME280;5726;42.160;24.746;2023-01-31T08:42:12;99275.94;;;6.82;75.48
11343;BME280;5726;42.160;24.746;2023-01-31T08:44:38;99271.66;;;6.91;75.33
11343;BME280;5726;42.160;24.746;2023-01-31T08:47:03;99274.31;;;7.01;74.75
11343;BME280;5726;42.160;24.746;2023-01-31T08:49:29;99267.16;;;6.91;74.36
11343;BME280;5726;42.160;24.746;2023-01-31T08:51:54;99279.06;;;7.09;74.14
11343;BME280;5726;42.160;24.746;2023-01-31T08:54:20;99272.72;;;7.05;74.53
11343;BME280;5726;42.160;24.746;2023-01-31T08:56:45;99281.50;;;7.00;74.26
11343;BME280;5726;42.160;24.746;2023-01-31T08:59:11;99282.06;;;6.97;74.88
11343;BME280;5726;42.160;24.746;2023-01-31T09:01:36;99286.00;;;7.10;73.95
11343;BME280;5726;42.160;24.746;2023-01-31T09:04:02;99280.97;;;7.03;73.89
11343;BME280;5726;42.160;24.746;2023-01-31T09:06:28;99287.03;;;7.18;73.81
11343;BME280;5726;42.160;24.746;2023-01-31T09:08:55;99280.56;;;7.39;73.42
11343;BME280;5726;42.160;24.746;2023-01-31T09:11:20;99283.09;;;7.69;72.54
11343;BME280;5726;42.160;24.746;2023-01-31T09:13:47;99277.25;;;8.05;71.38
11343;BME280;5726;42.160;24.746;2023-01-31T09:16:16;99282.06;;;8.03;71.25
11343;BME280;5726;42.160;24.746;2023-01-31T09:18:42;99284.84;;;8.31;69.81
11343;BME280;5726;42.160;24.746;2023-01-31T09:21:13;99282.59;;;8.43;68.74
11343;BME280;5726;42.160;24.746;2023-01-31T09:23:39;99288.00;;;8.38;69.07
11343;BME280;5726;42.160;24.746;2023-01-31T09:26:05;99276.25;;;8.34;68.49
11343;BME280;5726;42.160;24.746;2023-01-31T09:28:31;99280.25;;;8.37;69.21
11343;BME280;5726;42.160;24.746;2023-01-31T09:31:08;99276.84;;;8.59;68.65
11343;BME280;5726;42.160;24.746;2023-01-31T09:33:34;99265.44;;;8.77;67.95
11343;BME280;5726;42.160;24.746;2023-01-31T09:36:03;99272.00;;;8.90;68.30
11343;BME280;5726;42.160;24.746;2023-01-31T09:38:29;99273.97;;;8.79;67.57
11343;BME280;5726;42.160;24.746;2023-01-31T09:40:55;99262.78;;;8.77;68.25
11343;BME280;5726;42.160;24.746;2023-01-31T09:43:25;99259.81;;;8.79;68.11
11343;BME280;5726;42.160;24.746;2023-01-31T09:45:54;99265.50;;;8.72;67.72
11343;BME280;5726;42.160;24.746;2023-01-31T09:48:28;99261.16;;;8.76;68.76
11343;BME280;5726;42.160;24.746;2023-01-31T09:50:57;99254.81;;;8.96;68.40
11343;BME280;5726;42.160;24.746;2023-01-31T09:53:28;99239.63;;;9.14;67.63
11343;BME280;5726;42.160;24.746;2023-01-31T09:56:03;99240.59;;;9.23;65.75
11343;BME280;5726;42.160;24.746;2023-01-31T10:01:18;99232.47;;;9.33;64.96
11343;BME280;5726;42.160;24.746;2023-01-31T10:06:24;99220.84;;;9.19;64.87
11343;BME280;5726;42.160;24.746;2023-01-31T10:09:02;99219.38;;;9.50;64.19
11343;BME280;5726;42.160;24.746;2023-01-31T10:11:38;99218.94;;;9.43;63.66
11343;BME280;5726;42.160;24.746;2023-01-31T10:19:20;99188.56;;;9.34;64.64
11343;BME280;5726;42.160;24.746;2023-01-31T10:21:53;99200.06;;;9.53;63.52
11343;BME280;5726;42.160;24.746;2023-01-31T10:26:50;99204.69;;;9.48;64.29
11343;BME280;5726;42.160;24.746;2023-01-31T10:29:46;99203.56;;;9.72;63.25
11343;BME280;5726;42.160;24.746;2023-01-31T10:32:33;99191.38;;;9.61;63.49
11343;BME280;5726;42.160;24.746;2023-01-31T10:35:11;99199.78;;;9.73;63.61
11343;BME280;5726;42.160;24.746;2023-01-31T10:37:49;99193.69;;;9.49;64.13
11343;BME280;5726;42.160;24.746;2023-01-31T10:43:07;99183.78;;;9.31;64.55
11343;BME280;5726;42.160;24.746;2023-01-31T10:45:36;99195.09;;;9.47;64.48
11343;BME280;5726;42.160;24.746;2023-01-31T10:48:15;99180.75;;;9.56;64.16
11343;BME280;5726;42.160;24.746;2023-01-31T10:56:41;99166.88;;;9.54;63.07
11343;BME280;5726;42.160;24.746;2023-01-31T11:01:51;99163.84;;;9.42;64.23
11343;BME280;5726;42.160;24.746;2023-01-31T11:04:37;99166.72;;;9.27;64.64
11343;BME280;5726;42.160;24.746;2023-01-31T11:07:04;99163.03;;;9.42;64.95
11343;BME280;5726;42.160;24.746;2023-01-31T11:09:37;99169.91;;;9.48;64.27
11343;BME280;5726;42.160;24.746;2023-01-31T11:12:05;99171.50;;;9.30;64.54
11343;BME280;5726;42.160;24.746;2023-01-31T11:14:31;99173.44;;;9.25;65.62
11343;BME280;5726;42.160;24.746;2023-01-31T11:17:04;99158.72;;;9.27;65.48
11343;BME280;5726;42.160;24.746;2023-01-31T11:19:37;99161.88;;;9.29;65.63
11343;BME280;5726;42.160;24.746;2023-01-31T11:22:05;99162.69;;;9.48;64.85
11343;BME280;5726;42.160;24.746;2023-01-31T11:24:33;99167.97;;;9.53;66.46
11343;BME280;5726;42.160;24.746;2023-01-31T11:27:06;99162.75;;;9.61;64.39
11343;BME280;5726;42.160;24.746;2023-01-31T11:29:53;99165.78;;;9.73;64.15
11343;BME280;5726;42.160;24.746;2023-01-31T11:32:27;99175.78;;;9.50;64.31
11343;BME280;5726;42.160;24.746;2023-01-31T11:35:03;99171.94;;;9.37;65.02
11343;BME280;5726;42.160;24.746;2023-01-31T11:37:29;99169.47;;;9.59;63.78
11343;BME280;5726;42.160;24.746;2023-01-31T11:40:18;99160.72;;;9.35;64.76
11343;BME280;5726;42.160;24.746;2023-01-31T11:42:53;99140.59;;;9.01;65.80
11343;BME280;5726;42.160;24.746;2023-01-31T11:45:21;99137.75;;;8.93;66.36
11343;BME280;5726;42.160;24.746;2023-01-31T11:47:52;99145.56;;;8.89;66.63
11343;BME280;5726;42.160;24.746;2023-01-31T11:50:24;99142.09;;;8.89;66.88
11343;BME280;5726;42.160;24.746;2023-01-31T11:52:56;99143.69;;;8.90;67.07
11343;BME280;5726;42.160;24.746;2023-01-31T11:55:22;99138.34;;;8.90;67.46
11343;BME280;5726;42.160;24.746;2023-01-31T11:57:54;99147.38;;;8.94;66.18
11343;BME280;5726;42.160;24.746;2023-01-31T12:00:30;99153.19;;;9.01;66.47
11343;BME280;5726;42.160;24.746;2023-01-31T12:03:07;99152.38;;;9.00;66.97
11343;BME280;5726;42.160;24.746;2023-01-31T12:05:40;99159.81;;;9.03;70.06
11343;BME280;5726;42.160;24.746;2023-01-31T12:08:36;99158.06;;;8.94;67.25
11343;BME280;5726;42.160;24.746;2023-01-31T12:13:48;99165.63;;;8.87;67.03
11343;BME280;5726;42.160;24.746;2023-01-31T12:16:19;99167.13;;;8.98;66.70
11343;BME280;5726;42.160;24.746;2023-01-31T12:35:47;99180.44;;;8.56;69.05
11343;BME280;5726;42.160;24.746;2023-01-31T12:51:41;99173.78;;;8.77;69.30
11343;BME280;5726;42.160;24.746;2023-01-31T12:54:19;99191.94;;;8.80;68.48
11343;BME280;5726;42.160;24.746;2023-01-31T13:04:59;99214.63;;;9.05;70.77
11343;BME280;5726;42.160;24.746;2023-01-31T13:07:33;99204.34;;;8.66;73.62
11343;BME280;5726;42.160;24.746;2023-01-31T13:10:03;99198.16;;;8.47;75.75
11343;BME280;5726;42.160;24.746;2023-01-31T13:12:32;99202.13;;;8.21;77.72
11343;BME280;5726;42.160;24.746;2023-01-31T13:15:04;99203.09;;;8.30;77.64
11343;BME280;5726;42.160;24.746;2023-01-31T13:17:32;99194.22;;;8.11;78.94
11343;BME280;5726;42.160;24.746;2023-01-31T13:20:27;99193.88;;;7.85;81.23
11343;BME280;5726;42.160;24.746;2023-01-31T13:22:58;99187.97;;;7.88;81.25
11343;BME280;5726;42.160;24.746;2023-01-31T13:27:59;99194.88;;;7.94;79.94
11343;BME280;5726;42.160;24.746;2023-01-31T13:30:32;99188.16;;;7.96;80.16
11343;BME280;5726;42.160;24.746;2023-01-31T13:33:00;99197.41;;;8.13;78.96
11343;BME280;5726;42.160;24.746;2023-01-31T13:35:34;99191.88;;;8.33;77.48
11343;BME280;5726;42.160;24.746;2023-01-31T13:38:21;99193.75;;;8.33;76.18
11343;BME280;5726;42.160;24.746;2023-01-31T13:40:51;99203.63;;;8.60;75.68
11343;BME280;5726;42.160;24.746;2023-01-31T13:43:18;99205.16;;;8.66;74.89
11343;BME280;5726;42.160;24.746;2023-01-31T13:45:54;99201.00;;;8.56;75.37
11343;BME280;5726;42.160;24.746;2023-01-31T13:49:07;99202.09;;;8.26;75.07
11343;BME280;5726;42.160;24.746;2023-01-31T13:51:45;99198.28;;;8.60;74.13
11343;BME280;5726;42.160;24.746;2023-01-31T13:54:21;99199.88;;;8.33;74.20
11343;BME280;5726;42.160;24.746;2023-01-31T13:56:53;99199.09;;;8.33;74.59
11343;BME280;5726;42.160;24.746;2023-01-31T13:59:23;99218.56;;;8.33;74.86
11343;BME280;5726;42.160;24.746;2023-01-31T14:01:49;99208.94;;;8.37;75.83
11343;BME280;5726;42.160;24.746;2023-01-31T14:07:17;99216.28;;;8.50;75.21
11343;BME280;5726;42.160;24.746;2023-01-31T14:14:46;99224.59;;;8.15;74.94
11343;BME280;5726;42.160;24.746;2023-01-31T14:20:01;99238.94;;;8.29;75.27
11343;BME280;5726;42.160;24.746;2023-01-31T14:22:35;99225.78;;;8.00;74.74
11343;BME280;5726;42.160;24.746;2023-01-31T14:25:13;99228.88;;;8.16;75.64
11343;BME280;5726;42.160;24.746;2023-01-31T14:30:36;99222.91;;;8.29;76.81
11343;BME280;5726;42.160;24.746;2023-01-31T14:36:40;99227.00;;;7.79;78.64
11343;BME280;5726;42.160;24.746;2023-01-31T14:38:56;99238.16;;;7.86;79.48
11343;BME280;5726;42.160;24.746;2023-01-31T14:41:41;99244.88;;;7.78;79.52
11343;BME280;5726;42.160;24.746;2023-01-31T14:55:33;99275.63;;;7.66;79.72
11343;BME280;5726;42.160;24.746;2023-01-31T14:58:02;99273.00;;;7.61;80.09
11343;BME280;5726;42.160;24.746;2023-01-31T15:00:32;99278.06;;;7.58;80.79
11343;BME280;5726;42.160;24.746;2023-01-31T15:03:14;99270.84;;;7.63;80.66
11343;BME280;5726;42.160;24.746;2023-01-31T15:05:45;99281.00;;;7.56;80.53
11343;BME280;5726;42.160;24.746;2023-01-31T15:13:47;99287.97;;;7.47;81.11
11343;BME280;5726;42.160;24.746;2023-01-31T15:16:26;99290.13;;;7.45;80.80
11343;BME280;5726;42.160;24.746;2023-01-31T15:21:49;99308.63;;;7.17;81.35
11343;BME280;5726;42.160;24.746;2023-01-31T15:24:25;99309.44;;;7.17;81.08
11343;BME280;5726;42.160;24.746;2023-01-31T15:26:53;99316.91;;;7.15;81.45
11343;BME280;5726;42.160;24.746;2023-01-31T15:29:23;99326.00;;;7.05;82.33
11343;BME280;5726;42.160;24.746;2023-01-31T15:31:56;99320.94;;;6.98;82.18
11343;BME280;5726;42.160;24.746;2023-01-31T15:34:40;99330.78;;;7.03;82.48
11343;BME280;5726;42.160;24.746;2023-01-31T15:37:19;99324.41;;;7.04;82.26
11343;BME280;5726;42.160;24.746;2023-01-31T15:40:21;99332.44;;;6.89;82.74
11343;BME280;5726;42.160;24.746;2023-01-31T15:42:45;99338.00;;;6.92;82.84
11343;BME280;5726;42.160;24.746;2023-01-31T15:48:05;99347.38;;;6.75;83.41